Time;durP1;ratioP1;P1;durP2;ratioP2;P2;SDS_P1;SDS_P2;PMS_P1;PMS_P2;Temp;Humidity;BMP_temperature;BMP_pressure;BME280_temperature;BME280_humidity;BME280_pressure;Samples;Min_cycle;Max_cycle;Signal;HPM_P1;HPM_P2
2023/04/10 00:00:45;;;;;;;25.65;12.15;;;;;;;;;;5086260;28;20036;-81
2023/04/10 00:03:37;;;;;;;30.35;13.63;;;;;;;;;;5107988;28;20035;-81
2023/04/10 00:06:06;;;;;;;30.98;12.88;;;;;;;;;;5108572;28;20144;-82
2023/04/10 00:08:59;;;;;;;27.08;12.07;;;;;;;;;;5083911;28;20478;-82
2023/04/10 00:11:51;;;;;;;32.47;14.18;;;;;;;;;;5111047;28;20047;-81
2023/04/10 00:14:22;;;;;;;28.40;12.18;;;;;;;;;;5108965;28;20490;-81
2023/04/10 00:17:17;;;;;;;27.02;11.98;;;;;;;;;;5102745;28;20035;-82
2023/04/10 00:19:45;;;;;;;28.20;12.23;;;;;;;;;;5109011;28;20067;-81
2023/04/10 00:22:13;;;;;;;28.95;12.18;;;;;;;;;;5107418;28;20525;-81
2023/04/10 00:24:41;;;;;;;26.50;12.63;;;;;;;;;;5083822;28;20065;-81
2023/04/10 00:27:09;;;;;;;35.67;12.93;;;;;;;;;;5108143;28;20035;-81
2023/04/10 00:29:37;;;;;;;28.38;12.40;;;;;;;;;;5108544;28;20036;-81
2023/04/10 00:32:05;;;;;;;30.52;12.90;;;;;;;;;;5067456;28;20070;-81
2023/04/10 00:34:33;;;;;;;28.63;12.57;;;;;;;;;;5104486;28;20043;-81
2023/04/10 00:37:01;;;;;;;28.48;13.77;;;;;;;;;;5072206;28;20035;-82
2023/04/10 00:39:29;;;;;;;26.75;12.13;;;;;;;;;;5084502;28;20517;-81
2023/04/10 00:41:57;;;;;;;33.70;13.50;;;;;;;;;;5098086;28;20089;-81
2023/04/10 00:44:36;;;;;;;29.75;13.75;;;;;;;;;;5088856;28;20435;-82
2023/04/10 00:47:04;;;;;;;25.70;11.57;;;;;;;;;;5107259;28;20097;-81
2023/04/10 00:49:32;;;;;;;28.40;11.98;;;;;;;;;;5091080;28;20097;-82
2023/04/10 00:52:00;;;;;;;29.05;13.43;;;;;;;;;;5105633;28;20048;-81
2023/04/10 00:54:27;;;;;;;29.48;12.93;;;;;;;;;;5108826;28;20031;-81
2023/04/10 00:57:00;;;;;;;28.38;12.52;;;;;;;;;;5106171;28;20042;-81
2023/04/10 00:59:28;;;;;;;25.70;13.02;;;;;;;;;;5082192;28;20427;-81
2023/04/10 01:01:55;;;;;;;28.60;12.77;;;;;;;;;;5104209;28;20032;-81
2023/04/10 01:04:29;;;;;;;25.52;10.60;;;;;;;;;;5107575;28;20118;-81
2023/04/10 01:07:05;;;;;;;30.17;13.00;;;;;;;;;;5111220;27;20038;-81
2023/04/10 01:10:05;;;;;;;34.22;13.02;;;;;;;;;;5093843;28;20411;-81
2023/04/10 01:13:13;;;;;;;21.52;10.52;;;;;;;;;;5111069;27;20047;-81
2023/04/10 01:16:15;;;;;;;25.67;9.65;;;;;;;;;;5086022;28;20089;-82
2023/04/10 01:18:52;;;;;;;21.90;10.70;;;;;;;;;;5084379;28;20423;-81
2023/04/10 01:21:21;;;;;;;25.95;11.00;;;;;;;;;;5087950;28;20050;-81
2023/04/10 01:23:59;;;;;;;28.10;12.10;;;;;;;;;;5074129;28;20058;-81
2023/04/10 01:27:19;;;;;;;29.50;12.77;;;;;;;;;;5111697;28;20031;-81
2023/04/10 01:30:16;;;;;;;24.13;10.73;;;;;;;;;;5090482;28;20038;-81
2023/04/10 01:35:46;;;;;;;30.33;12.63;;;;;;;;;;5084766;28;20043;-82
2023/04/10 01:38:16;;;;;;;19.05;9.32;;;;;;;;;;5090641;28;20052;-81
2023/04/10 01:40:49;;;;;;;29.58;12.05;;;;;;;;;;5109882;27;20050;-82
2023/04/10 01:43:28;;;;;;;27.40;11.98;;;;;;;;;;5090085;28;20470;-81
2023/04/10 01:45:58;;;;;;;31.42;12.90;;;;;;;;;;5107701;28;20525;-81
2023/04/10 01:48:28;;;;;;;30.45;12.70;;;;;;;;;;5109327;28;20047;-81
2023/04/10 01:50:56;;;;;;;25.90;12.05;;;;;;;;;;5078807;28;20399;-81
2023/04/10 01:53:24;;;;;;;30.98;12.55;;;;;;;;;;5075872;28;20043;-81
2023/04/10 01:55:52;;;;;;;34.53;13.18;;;;;;;;;;5087475;27;20046;-81
2023/04/10 01:58:19;;;;;;;30.90;13.88;;;;;;;;;;5104248;28;20644;-82
2023/04/10 02:00:55;;;;;;;28.02;12.38;;;;;;;;;;5098019;27;20059;-81
2023/04/10 02:03:47;;;;;;;33.40;14.43;;;;;;;;;;5110526;27;20048;-81
2023/04/10 02:06:39;;;;;;;30.63;12.23;;;;;;;;;;5093283;27;20123;-81
2023/04/10 02:09:20;;;;;;;27.77;12.70;;;;;;;;;;5107763;27;20446;-81
2023/04/10 02:12:05;;;;;;;26.88;12.43;;;;;;;;;;5089624;28;20380;-81
2023/04/10 02:14:40;;;;;;;32.03;13.13;;;;;;;;;;5109155;28;20047;-82
2023/04/10 02:17:15;;;;;;;33.40;13.13;;;;;;;;;;5090861;28;20452;-82
2023/04/10 02:20:09;;;;;;;30.33;12.15;;;;;;;;;;5087475;28;20107;-82
2023/04/10 02:22:45;;;;;;;29.45;13.23;;;;;;;;;;5108087;27;20058;-81
2023/04/10 02:25:35;;;;;;;31.38;12.68;;;;;;;;;;5074263;28;20032;-81
2023/04/10 02:28:07;;;;;;;29.98;13.23;;;;;;;;;;5107439;28;20040;-81
2023/04/10 02:30:35;;;;;;;30.30;12.15;;;;;;;;;;5100260;28;21770;-81
2023/04/10 02:33:03;;;;;;;29.13;13.55;;;;;;;;;;5108916;27;20050;-82
2023/04/10 02:35:32;;;;;;;30.63;13.07;;;;;;;;;;5093064;28;20040;-82
2023/04/10 02:38:08;;;;;;;28.10;12.40;;;;;;;;;;5107146;28;20495;-81
2023/04/10 02:40:37;;;;;;;30.70;12.63;;;;;;;;;;5086411;28;20054;-81
2023/04/10 02:43:11;;;;;;;27.05;12.90;;;;;;;;;;5081718;27;20072;-81
2023/04/10 02:45:40;;;;;;;27.70;12.13;;;;;;;;;;5074196;28;20451;-81
2023/04/10 02:48:12;;;;;;;26.13;11.77;;;;;;;;;;5084369;28;20048;-81
2023/04/10 02:50:44;;;;;;;30.20;12.80;;;;;;;;;;5086353;28;20163;-81
2023/04/10 02:53:15;;;;;;;28.77;12.10;;;;;;;;;;5085264;28;20099;-82
2023/04/10 02:55:49;;;;;;;28.65;13.18;;;;;;;;;;5089306;28;20372;-81
2023/04/10 02:58:17;;;;;;;28.73;13.23;;;;;;;;;;5086838;28;20123;-81
2023/04/10 03:00:58;;;;;;;29.17;12.93;;;;;;;;;;5090369;28;20048;-82
2023/04/10 03:03:41;;;;;;;25.30;12.52;;;;;;;;;;5089829;28;20063;-81
2023/04/10 03:06:09;;;;;;;31.33;12.60;;;;;;;;;;5075307;28;20054;-81
2023/04/10 03:09:01;;;;;;;30.58;13.13;;;;;;;;;;5091713;28;20024;-81
2023/04/10 03:11:29;;;;;;;27.65;12.52;;;;;;;;;;5096737;28;20066;-81
2023/04/10 03:13:57;;;;;;;28.45;11.57;;;;;;;;;;5109433;27;20563;-82
2023/04/10 03:16:25;;;;;;;30.98;13.63;;;;;;;;;;5107781;28;20096;-81
2023/04/10 03:18:53;;;;;;;30.23;13.60;;;;;;;;;;5084990;28;20036;-82
2023/04/10 03:21:46;;;;;;;29.50;12.15;;;;;;;;;;5110625;27;20048;-81
2023/04/10 03:24:40;;;;;;;30.13;13.35;;;;;;;;;;5090293;28;20038;-81
2023/04/10 03:27:07;;;;;;;29.80;12.95;;;;;;;;;;5085067;28;20035;-82
2023/04/10 03:29:39;;;;;;;32.60;12.88;;;;;;;;;;5095676;27;20205;-81
2023/04/10 03:32:12;;;;;;;32.70;12.43;;;;;;;;;;5091009;28;20065;-82
2023/04/10 03:34:39;;;;;;;32.08;12.90;;;;;;;;;;5082978;28;20478;-82
2023/04/10 03:37:07;;;;;;;31.48;13.45;;;;;;;;;;5106276;28;20455;-81
2023/04/10 03:40:06;;;;;;;28.42;12.60;;;;;;;;;;5107805;28;20044;-81
2023/04/10 03:42:39;;;;;;;30.08;13.40;;;;;;;;;;5091048;28;20146;-81
2023/04/10 03:45:08;;;;;;;30.40;12.82;;;;;;;;;;5106778;28;20040;-81
2023/04/10 03:47:35;;;;;;;31.45;12.48;;;;;;;;;;5083990;28;20069;-81
2023/04/10 03:50:05;;;;;;;36.83;14.45;;;;;;;;;;5091448;28;20054;-82
2023/04/10 03:52:41;;;;;;;28.48;12.57;;;;;;;;;;5084548;28;20067;-81
2023/04/10 03:55:17;;;;;;;28.75;12.52;;;;;;;;;;5091269;28;20048;-81
2023/04/10 03:57:46;;;;;;;32.42;12.85;;;;;;;;;;5106241;28;20097;-81
2023/04/10 04:00:25;;;;;;;28.42;11.05;;;;;;;;;;5106039;28;20118;-82
2023/04/10 04:03:05;;;;;;;30.50;12.45;;;;;;;;;;5082791;28;20036;-81
2023/04/10 04:05:59;;;;;;;26.58;11.80;;;;;;;;;;5092522;28;20904;-81
2023/04/10 04:09:07;;;;;;;31.38;12.63;;;;;;;;;;5080881;28;20539;-81
2023/04/10 04:11:59;;;;;;;25.35;10.77;;;;;;;;;;5109631;28;20032;-81
2023/04/10 04:14:45;;;;;;;29.67;12.25;;;;;;;;;;5092015;28;20057;-81
2023/04/10 04:17:25;;;;;;;32.15;12.55;;;;;;;;;;5108251;28;20044;-81
2023/04/10 04:20:21;;;;;;;29.08;12.45;;;;;;;;;;5109595;28;20046;-81
2023/04/10 04:23:16;;;;;;;29.30;12.98;;;;;;;;;;5111335;28;20089;-81
2023/04/10 04:26:03;;;;;;;28.83;12.05;;;;;;;;;;5107903;28;20035;-82
2023/04/10 04:28:55;;;;;;;28.15;12.07;;;;;;;;;;5109030;28;20067;-81
2023/04/10 04:31:41;;;;;;;30.35;13.00;;;;;;;;;;5090070;28;20038;-81
2023/04/10 04:34:39;;;;;;;29.50;13.13;;;;;;;;;;5039982;28;20604;-81
2023/04/10 04:37:23;;;;;;;31.60;12.52;;;;;;;;;;5029677;28;20045;-81
2023/04/10 04:40:19;;;;;;;31.95;12.93;;;;;;;;;;5017441;28;21144;-82
2023/04/10 04:42:59;;;;;;;30.05;12.68;;;;;;;;;;5017626;28;20041;-81
2023/04/10 04:45:59;;;;;;;33.20;12.68;;;;;;;;;;4984295;28;20046;-81
2023/04/10 04:48:59;;;;;;;31.05;13.10;;;;;;;;;;5017088;28;20092;-82
2023/04/10 04:51:37;;;;;;;28.95;12.38;;;;;;;;;;5015115;28;20050;-81
2023/04/10 04:54:09;;;;;;;31.92;13.27;;;;;;;;;;5001235;28;20057;-81
2023/04/10 04:56:37;;;;;;;29.65;12.27;;;;;;;;;;5016179;28;20144;-81
2023/04/10 04:59:23;;;;;;;28.52;11.95;;;;;;;;;;5016819;28;20056;-81
2023/04/10 05:02:11;;;;;;;28.20;12.18;;;;;;;;;;4965225;28;20059;-81
2023/04/10 05:05:15;;;;;;;26.38;12.63;;;;;;;;;;4888659;29;20068;-82
2023/04/10 05:08:11;;;;;;;27.90;12.02;;;;;;;;;;4888852;29;20440;-81
2023/04/10 05:11:01;;;;;;;;;;;;;;;;;;5055234;28;20908;-80
2023/04/10 05:13:47;;;;;;;27.58;10.63;;;;;;;;;;5054349;28;19928;-81
2023/04/10 05:16:41;;;;;;;27.58;12.57;;;;;;;;;;5053065;28;20041;-81
2023/04/10 05:19:17;;;;;;;26.35;11.43;;;;;;;;;;5070799;28;20757;-81
2023/04/10 05:24:58;;;;;;;29.60;12.80;;;;;;;;;;5051080;28;20051;-80
2023/04/10 05:27:37;;;;;;;28.52;12.70;;;;;;;;;;5052535;28;20143;-80
2023/04/10 05:30:23;;;;;;;31.77;13.52;;;;;;;;;;5054171;28;20406;-80
2023/04/10 05:33:17;;;;;;;32.92;13.60;;;;;;;;;;5055862;28;20604;-80
2023/04/10 05:36:25;;;;;;;32.78;13.13;;;;;;;;;;4999807;28;20535;-80
2023/04/10 05:39:17;;;;;;;26.92;11.68;;;;;;;;;;5015473;28;20053;-80
2023/04/10 05:41:57;;;;;;;27.80;12.70;;;;;;;;;;5004957;28;20524;-80
2023/04/10 05:44:33;;;;;;;34.30;14.23;;;;;;;;;;5017264;28;20049;-80
2023/04/10 05:47:37;;;;;;;31.88;13.05;;;;;;;;;;5016708;28;20112;-81
2023/04/10 05:50:19;;;;;;;31.55;13.27;;;;;;;;;;5023020;28;20096;-80
2023/04/10 05:53:13;;;;;;;34.85;13.13;;;;;;;;;;5017591;28;20050;-81
2023/04/10 05:56:25;;;;;;;29.27;13.13;;;;;;;;;;5016894;28;20053;-80
2023/04/10 05:59:15;;;;;;;29.50;13.02;;;;;;;;;;4958469;28;20152;-81
2023/04/10 06:02:26;;;;;;;25.15;11.90;;;;;;;;;;4960997;28;20035;-80
2023/04/10 06:04:53;;;;;;;31.25;12.45;;;;;;;;;;4930633;28;20067;-80
2023/04/10 06:07:21;;;;;;;28.58;13.45;;;;;;;;;;4962546;28;20170;-80
2023/04/10 06:10:13;;;;;;;30.73;13.05;;;;;;;;;;4949106;28;20070;-80
2023/04/10 06:13:32;;;;;;;28.77;12.88;;;;;;;;;;4976808;28;20066;-80
2023/04/10 06:16:01;;;;;;;39.45;15.23;;;;;;;;;;4982200;28;20222;-80
2023/04/10 06:18:31;;;;;;;36.15;13.27;;;;;;;;;;4981513;28;20046;-80
2023/04/10 06:21:00;;;;;;;32.08;12.73;;;;;;;;;;4970992;28;20584;-80
2023/04/10 06:23:33;;;;;;;32.88;14.13;;;;;;;;;;4962506;28;20061;-80
2023/04/10 06:26:02;;;;;;;32.38;13.70;;;;;;;;;;4964124;28;20043;-81
2023/04/10 06:28:36;;;;;;;33.03;13.15;;;;;;;;;;4946802;28;20126;-80
2023/04/10 06:31:10;;;;;;;30.23;13.48;;;;;;;;;;4962630;28;20078;-80
2023/04/10 06:33:39;;;;;;;28.58;12.63;;;;;;;;;;4962847;28;20062;-80
2023/04/10 06:36:09;;;;;;;30.75;12.93;;;;;;;;;;4982567;28;20042;-81
2023/04/10 06:38:47;;;;;;;29.50;12.82;;;;;;;;;;5038705;28;20041;-81
2023/04/10 06:41:15;;;;;;;26.30;12.63;;;;;;;;;;5023458;28;20136;-80
2023/04/10 06:43:44;;;;;;;32.10;13.30;;;;;;;;;;5037613;28;20049;-81
2023/04/10 06:46:11;;;;;;;30.60;13.20;;;;;;;;;;5022276;28;20056;-81
2023/04/10 06:48:39;;;;;;;31.92;13.10;;;;;;;;;;5034585;28;20059;-80
2023/04/10 06:51:07;;;;;;;31.40;13.10;;;;;;;;;;5022582;28;20479;-80
2023/04/10 06:53:35;;;;;;;29.98;12.82;;;;;;;;;;5039545;28;20037;-81
2023/04/10 06:56:27;;;;;;;27.35;13.73;;;;;;;;;;5039898;28;20425;-80
2023/04/10 06:59:19;;;;;;;25.67;11.88;;;;;;;;;;5038855;28;20195;-80
2023/04/10 07:01:51;;;;;;;28.08;13.05;;;;;;;;;;5037423;28;20402;-80
2023/04/10 07:04:24;;;;;;;31.83;14.20;;;;;;;;;;5037425;28;20132;-80
2023/04/10 07:06:53;;;;;;;28.55;13.10;;;;;;;;;;5038530;28;20163;-80
2023/04/10 07:09:22;;;;;;;27.23;13.20;;;;;;;;;;5053812;28;20124;-81
2023/04/10 07:11:55;;;;;;;31.55;14.38;;;;;;;;;;5038920;28;20038;-80
2023/04/10 07:14:23;;;;;;;27.90;12.23;;;;;;;;;;5036175;28;20049;-80
2023/04/10 07:16:52;;;;;;;28.55;13.55;;;;;;;;;;5037353;28;20415;-80
2023/04/10 07:19:31;;;;;;;27.02;12.60;;;;;;;;;;5038583;28;20499;-81
2023/04/10 07:21:59;;;;;;;27.75;13.30;;;;;;;;;;5037323;28;20037;-81
2023/04/10 07:24:31;;;;;;;25.95;13.15;;;;;;;;;;5023780;28;20048;-80
2023/04/10 07:27:05;;;;;;;27.30;13.43;;;;;;;;;;5037115;28;20047;-81
2023/04/10 07:29:35;;;;;;;25.42;12.38;;;;;;;;;;5035808;28;20532;-81
2023/04/10 07:32:27;;;;;;;26.83;12.20;;;;;;;;;;5037615;28;20037;-81
2023/04/10 07:34:55;;;;;;;30.20;11.95;;;;;;;;;;5035489;28;20510;-81
2023/04/10 07:37:23;;;;;;;23.48;12.02;;;;;;;;;;5030619;28;20049;-81
2023/04/10 07:39:52;;;;;;;24.50;12.32;;;;;;;;;;5044662;28;20048;-81
2023/04/10 07:42:19;;;;;;;28.40;13.00;;;;;;;;;;5043116;28;20558;-82
2023/04/10 07:44:47;;;;;;;24.63;11.63;;;;;;;;;;5038886;28;20396;-81
2023/04/10 07:47:39;;;;;;;23.20;11.90;;;;;;;;;;5031151;28;20038;-81
2023/04/10 07:50:07;;;;;;;27.88;11.40;;;;;;;;;;5035728;28;20178;-82
2023/04/10 07:52:35;;;;;;;24.83;13.40;;;;;;;;;;5047138;28;20046;-81
2023/04/10 07:55:04;;;;;;;23.42;12.07;;;;;;;;;;5029932;28;20046;-81
2023/04/10 07:57:57;;;;;;;25.75;12.05;;;;;;;;;;5037054;28;20042;-81
2023/04/10 08:00:29;;;;;;;24.58;11.90;;;;;;;;;;5033348;28;20083;-81
2023/04/10 08:03:07;;;;;;;22.02;11.05;;;;;;;;;;5032480;28;20033;-81
2023/04/10 08:05:35;;;;;;;22.73;11.90;;;;;;;;;;5022145;28;20044;-81
2023/04/10 08:08:03;;;;;;;22.27;11.70;;;;;;;;;;5035237;28;20043;-81
2023/04/10 08:10:31;;;;;;;23.20;11.93;;;;;;;;;;5052366;28;20068;-81
2023/04/10 08:13:04;;;;;;;22.38;11.90;;;;;;;;;;5030462;28;20076;-81
2023/04/10 08:15:31;;;;;;;24.20;12.20;;;;;;;;;;5037966;28;20095;-81
2023/04/10 08:18:07;;;;;;;24.02;11.00;;;;;;;;;;5035890;28;20049;-81
2023/04/10 08:21:03;;;;;;;20.75;11.40;;;;;;;;;;5036531;28;20598;-81
2023/04/10 08:23:31;;;;;;;26.23;11.93;;;;;;;;;;5033305;28;20037;-81
2023/04/10 08:25:59;;;;;;;22.52;10.82;;;;;;;;;;5035397;28;20103;-81
2023/04/10 08:28:27;;;;;;;22.88;11.75;;;;;;;;;;5034501;28;20038;-81
2023/04/10 08:31:01;;;;;;;23.13;12.13;;;;;;;;;;5026311;28;20302;-81
2023/04/10 08:34:03;;;;;;;20.88;11.10;;;;;;;;;;5030414;28;20046;-80
2023/04/10 08:36:33;;;;;;;21.30;11.55;;;;;;;;;;5037419;28;20040;-80
2023/04/10 08:39:01;;;;;;;20.85;11.40;;;;;;;;;;5028750;28;20037;-80
2023/04/10 08:41:29;;;;;;;20.20;11.43;;;;;;;;;;5038602;28;20036;-80
2023/04/10 08:43:57;;;;;;;20.90;11.38;;;;;;;;;;5015195;28;20131;-80
2023/04/10 08:46:26;;;;;;;20.95;11.82;;;;;;;;;;5020088;28;20434;-80
2023/04/10 08:49:04;;;;;;;22.45;11.07;;;;;;;;;;5032822;28;20049;-80
2023/04/10 08:52:07;;;;;;;20.08;11.23;;;;;;;;;;5037570;28;20044;-80
2023/04/10 08:54:37;;;;;;;19.67;11.02;;;;;;;;;;4973690;28;20042;-80
2023/04/10 08:57:16;;;;;;;23.05;10.88;;;;;;;;;;4993848;28;20464;-80
2023/04/10 08:59:43;;;;;;;22.83;11.48;;;;;;;;;;4974977;28;20057;-81
2023/04/10 09:02:11;;;;;;;20.42;11.20;;;;;;;;;;4993814;28;20445;-80
2023/04/10 09:04:50;;;;;;;19.45;11.20;;;;;;;;;;4992020;28;20053;-80
2023/04/10 09:07:17;;;;;;;20.05;11.10;;;;;;;;;;4993985;28;20061;-80
2023/04/10 09:09:49;;;;;;;20.90;11.50;;;;;;;;;;4978174;28;20057;-80
2023/04/10 09:12:17;;;;;;;18.70;10.55;;;;;;;;;;4994757;28;20038;-80
2023/04/10 09:14:47;;;;;;;21.48;11.32;;;;;;;;;;4978613;28;20041;-81
2023/04/10 09:17:23;;;;;;;21.67;11.20;;;;;;;;;;4994169;28;20073;-81
2023/04/10 09:20:39;;;;;;;19.83;10.15;;;;;;;;;;4991888;28;20300;-81
2023/04/10 09:23:31;;;;;;;19.02;11.13;;;;;;;;;;4978549;28;20517;-81
2023/04/10 09:25:59;;;;;;;18.88;10.85;;;;;;;;;;4986223;28;20214;-81
2023/04/10 09:28:27;;;;;;;17.98;10.10;;;;;;;;;;5007732;28;20048;-81
2023/04/10 09:30:55;;;;;;;19.05;10.68;;;;;;;;;;5031307;28;20037;-81
2023/04/10 09:33:26;;;;;;;19.63;9.95;;;;;;;;;;5032366;28;20420;-82
2023/04/10 09:35:59;;;;;;;18.92;10.30;;;;;;;;;;5050252;28;20087;-82
2023/04/10 09:38:28;;;;;;;18.20;10.77;;;;;;;;;;5046707;28;20037;-82
2023/04/10 09:41:20;;;;;;;17.15;9.25;;;;;;;;;;5030383;28;20030;-81
2023/04/10 09:43:47;;;;;;;17.88;10.05;;;;;;;;;;5038201;28;20042;-81
2023/04/10 09:46:39;;;;;;;22.27;10.93;;;;;;;;;;5030342;28;20115;-81
2023/04/10 09:49:08;;;;;;;16.80;10.20;;;;;;;;;;5035602;28;20061;-81
2023/04/10 09:51:35;;;;;;;22.13;10.80;;;;;;;;;;5038704;28;20041;-81
2023/04/10 09:54:09;;;;;;;16.15;9.65;;;;;;;;;;5040949;28;20064;-81
2023/04/10 09:57:03;;;;;;;18.27;10.20;;;;;;;;;;5042907;28;20086;-81
2023/04/10 09:59:31;;;;;;;17.17;9.77;;;;;;;;;;5041192;28;20033;-81
2023/04/10 10:01:59;;;;;;;16.10;9.35;;;;;;;;;;5036967;28;20102;-82
2023/04/10 10:04:28;;;;;;;15.55;8.98;;;;;;;;;;5041811;28;20052;-81
2023/04/10 10:07:22;;;;;;;15.93;9.15;;;;;;;;;;5038294;28;20057;-81
2023/04/10 10:10:19;;;;;;;15.85;9.45;;;;;;;;;;5039935;28;20659;-81
2023/04/10 10:13:00;;;;;;;16.02;9.25;;;;;;;;;;5040682;28;20091;-81
2023/04/10 10:16:25;;;;;;;13.45;7.78;;;;;;;;;;5025587;28;20042;-81
2023/04/10 10:19:22;;;;;;;11.48;7.03;;;;;;;;;;5009664;28;20331;-81
2023/04/10 10:21:58;;;;;;;14.63;8.52;;;;;;;;;;5002378;28;20048;-82
2023/04/10 10:24:27;;;;;;;14.65;8.40;;;;;;;;;;5026872;28;20057;-82
2023/04/10 10:27:19;;;;;;;12.82;7.82;;;;;;;;;;5036189;28;20606;-81
2023/04/10 10:29:49;;;;;;;12.02;7.22;;;;;;;;;;5021401;28;20052;-81
2023/04/10 10:32:17;;;;;;;10.40;6.85;;;;;;;;;;5041819;28;20519;-82
2023/04/10 10:34:46;;;;;;;13.02;7.75;;;;;;;;;;5005000;28;20049;-81
2023/04/10 10:37:14;;;;;;;11.13;6.68;;;;;;;;;;5023454;28;20072;-82
2023/04/10 10:40:11;;;;;;;10.35;6.75;;;;;;;;;;5042166;28;20131;-82
2023/04/10 10:43:21;;;;;;;12.13;7.20;;;;;;;;;;5034836;28;20048;-82
2023/04/10 10:45:59;;;;;;;10.52;6.40;;;;;;;;;;5028036;28;20040;-82
2023/04/10 10:48:27;;;;;;;12.93;7.15;;;;;;;;;;5042407;28;20054;-83
2023/04/10 10:50:58;;;;;;;12.07;6.95;;;;;;;;;;5050070;28;20037;-83
2023/04/10 10:53:42;;;;;;;10.68;6.18;;;;;;;;;;5059968;28;20049;-83
2023/04/10 10:56:19;;;;;;;11.77;6.15;;;;;;;;;;5053512;28;20068;-81
2023/04/10 10:58:53;;;;;;;11.00;5.75;;;;;;;;;;5057136;28;20038;-81
2023/04/10 11:01:21;;;;;;;10.68;6.80;;;;;;;;;;5073944;28;20014;-82
2023/04/10 11:03:49;;;;;;;9.70;5.90;;;;;;;;;;5066000;28;20049;-83
2023/04/10 11:06:49;;;;;;;11.20;6.07;;;;;;;;;;5067016;28;20047;-83
2023/04/10 11:09:53;;;;;;;10.77;5.97;;;;;;;;;;5062551;28;20025;-82
2023/04/10 11:12:25;;;;;;;8.50;5.63;;;;;;;;;;5060307;28;20029;-82
2023/04/10 11:14:58;;;;;;;9.65;5.70;;;;;;;;;;5059735;28;20068;-83
2023/04/10 11:17:48;;;;;;;10.40;6.28;;;;;;;;;;5074276;28;20029;-82
2023/04/10 11:20:20;;;;;;;10.02;5.53;;;;;;;;;;5059443;28;20045;-82
2023/04/10 11:23:19;;;;;;;10.02;5.80;;;;;;;;;;5042186;28;20039;-83
2023/04/10 11:25:53;;;;;;;8.52;5.68;;;;;;;;;;5069147;28;20065;-83
2023/04/10 11:28:45;;;;;;;9.40;5.97;;;;;;;;;;5059062;28;20042;-82
2023/04/10 11:31:18;;;;;;;9.00;5.63;;;;;;;;;;5057866;28;20048;-83
2023/04/10 11:33:59;;;;;;;10.93;5.90;;;;;;;;;;5049264;28;20076;-82
2023/04/10 11:36:28;;;;;;;8.88;5.70;;;;;;;;;;5058436;28;20037;-82
2023/04/10 11:39:21;;;;;;;9.43;5.60;;;;;;;;;;5055186;28;20041;-82
2023/04/10 11:41:50;;;;;;;10.38;5.63;;;;;;;;;;5056180;28;20045;-82
2023/04/10 11:44:30;;;;;;;13.45;6.43;;;;;;;;;;5055286;28;20037;-82
2023/04/10 11:47:23;;;;;;;9.10;5.50;;;;;;;;;;5056072;28;20029;-82
2023/04/10 11:50:17;;;;;;;9.55;5.72;;;;;;;;;;5053923;28;20064;-82
2023/04/10 11:52:49;;;;;;;10.65;6.18;;;;;;;;;;5058139;28;20041;-82
2023/04/10 11:55:17;;;;;;;9.80;5.50;;;;;;;;;;5042048;28;20041;-82
2023/04/10 11:57:45;;;;;;;8.93;5.70;;;;;;;;;;5073648;28;20048;-82
2023/04/10 12:00:37;;;;;;;8.90;5.30;;;;;;;;;;5059451;28;20037;-83
2023/04/10 12:03:36;;;;;;;8.25;4.82;;;;;;;;;;5053819;28;20029;-82
2023/04/10 12:06:06;;;;;;;10.02;5.43;;;;;;;;;;5057880;28;20041;-83
2023/04/10 12:08:35;;;;;;;10.10;5.40;;;;;;;;;;5053912;28;20063;-82
2023/04/10 12:11:04;;;;;;;8.27;5.15;;;;;;;;;;5055953;28;20476;-83
2023/04/10 12:13:31;;;;;;;8.88;5.55;;;;;;;;;;5066193;28;20097;-82
2023/04/10 12:16:02;;;;;;;7.53;4.60;;;;;;;;;;5052975;28;20044;-83
2023/04/10 12:18:30;;;;;;;11.10;5.40;;;;;;;;;;5035907;28;20072;-83
2023/04/10 12:20:58;;;;;;;7.50;4.63;;;;;;;;;;5037403;28;20033;-83
2023/04/10 12:28:08;;;;;;;7.45;4.20;;;;;;;;;;5014843;28;20112;-88
2023/04/10 12:34:56;;;;;;;8.45;4.30;;;;;;;;;;5005198;28;20041;-84
2023/04/10 12:37:46;;;;;;;6.85;4.25;;;;;;;;;;5005248;28;20057;-83
2023/04/10 12:40:13;;;;;;;7.45;4.25;;;;;;;;;;5008854;28;20042;-84
2023/04/10 12:42:46;;;;;;;6.70;4.15;;;;;;;;;;4985831;28;20192;-84
2023/04/10 12:45:14;;;;;;;6.07;4.00;;;;;;;;;;5007267;28;20140;-84
2023/04/10 12:48:05;;;;;;;6.25;3.97;;;;;;;;;;4990893;28;20092;-84
2023/04/10 12:50:46;;;;;;;7.28;4.22;;;;;;;;;;5006348;28;20060;-84
2023/04/10 12:53:13;;;;;;;9.40;3.90;;;;;;;;;;5005319;28;20064;-84
2023/04/10 12:55:57;;;;;;;6.45;3.72;;;;;;;;;;5003066;28;20049;-84
2023/04/10 12:58:48;;;;;;;8.38;4.30;;;;;;;;;;5005573;28;20116;-84
2023/04/10 13:01:21;;;;;;;6.35;3.30;;;;;;;;;;4988557;28;20084;-85
2023/04/10 13:03:49;;;;;;;5.68;3.65;;;;;;;;;;5021086;28;20045;-84
2023/04/10 13:09:12;;;;;;;6.70;3.67;;;;;;;;;;5036920;28;20136;-84
2023/04/10 13:11:45;;;;;;;8.13;3.75;;;;;;;;;;5028543;28;20033;-84
2023/04/10 13:14:15;;;;;;;6.03;3.60;;;;;;;;;;5038746;28;20041;-84
2023/04/10 13:17:09;;;;;;;6.97;3.60;;;;;;;;;;5046853;28;20047;-83
2023/04/10 13:19:37;;;;;;;6.90;3.60;;;;;;;;;;5045596;28;20080;-83
2023/04/10 13:22:29;;;;;;;6.10;3.60;;;;;;;;;;5048813;28;20026;-82
2023/04/10 13:24:58;;;;;;;8.98;4.15;;;;;;;;;;5052640;28;20025;-84
2023/04/10 13:27:25;;;;;;;5.65;3.38;;;;;;;;;;5064463;28;20149;-83
2023/04/10 13:29:53;;;;;;;5.55;3.22;;;;;;;;;;5049324;28;20124;-83
2023/04/10 13:32:21;;;;;;;6.70;3.00;;;;;;;;;;5036660;28;20037;-83
2023/04/10 13:34:49;;;;;;;7.07;3.90;;;;;;;;;;5052435;28;20044;-83
2023/04/10 13:37:41;;;;;;;6.20;3.85;;;;;;;;;;5057601;28;20051;-83
2023/04/10 13:40:09;;;;;;;5.18;3.15;;;;;;;;;;5059564;28;20041;-84
2023/04/10 13:42:37;;;;;;;6.85;3.42;;;;;;;;;;5058123;28;20037;-84
2023/04/10 13:45:44;;;;;;;6.10;3.58;;;;;;;;;;5049565;28;20076;-84
2023/04/10 13:48:11;;;;;;;9.85;4.05;;;;;;;;;;5070268;28;20037;-84
2023/04/10 13:52:23;;;;;;;8.25;3.72;;;;;;;;;;5068309;28;20052;-84
2023/04/10 13:55:09;;;;;;;6.18;3.60;;;;;;;;;;5001496;28;20038;-84
2023/04/10 13:58:57;;;;;;;6.82;3.70;;;;;;;;;;5042277;28;20041;-84
2023/04/10 14:02:46;;;;;;;6.82;3.75;;;;;;;;;;5043382;28;20034;-84
2023/04/10 14:05:53;;;;;;;6.73;4.07;;;;;;;;;;5003861;28;20049;-84
2023/04/10 14:08:39;;;;;;;8.60;4.13;;;;;;;;;;5011608;28;20310;-84
2023/04/10 14:11:08;;;;;;;6.53;4.03;;;;;;;;;;5015010;28;20034;-82
2023/04/10 14:13:35;;;;;;;7.00;4.20;;;;;;;;;;5014908;28;20140;-83
2023/04/10 14:16:03;;;;;;;8.48;4.00;;;;;;;;;;5015646;28;20041;-83
2023/04/10 14:19:21;;;;;;;7.13;4.45;;;;;;;;;;5036462;28;20053;-84
2023/04/10 14:21:49;;;;;;;6.90;4.30;;;;;;;;;;5028244;28;20068;-83
2023/04/10 14:24:17;;;;;;;9.00;5.45;;;;;;;;;;5036731;28;20054;-83
2023/04/10 14:26:45;;;;;;;9.68;5.47;;;;;;;;;;5032459;28;20049;-83
2023/04/10 14:29:13;;;;;;;7.57;4.75;;;;;;;;;;5026569;28;20638;-83
2023/04/10 14:32:05;;;;;;;8.40;4.78;;;;;;;;;;5054336;28;20109;-83
2023/04/10 14:34:33;;;;;;;9.48;5.07;;;;;;;;;;5057178;28;20037;-84
2023/04/10 14:37:01;;;;;;;11.07;5.18;;;;;;;;;;5055405;28;20041;-86
2023/04/10 14:41:05;;;;;;;8.35;4.53;;;;;;;;;;5013424;28;20050;-86
2023/04/10 14:44:41;;;;;;;8.75;4.55;;;;;;;;;;5024174;28;20054;-86
2023/04/10 14:48:42;;;;;;;7.22;4.68;;;;;;;;;;5020653;28;20068;-85
2023/04/10 14:51:26;;;;;;;11.55;5.32;;;;;;;;;;4989837;28;20041;-85
2023/04/10 14:54:08;;;;;;;7.78;4.80;;;;;;;;;;4976502;28;20393;-86
2023/04/10 14:58:25;;;;;;;6.97;4.57;;;;;;;;;;4953710;28;20062;-87
2023/04/10 15:02:45;;;;;;;12.63;4.90;;;;;;;;;;4951157;28;20043;-84
2023/04/10 15:05:15;;;;;;;10.20;5.13;;;;;;;;;;4932063;28;20473;-84
2023/04/10 15:08:09;;;;;;;8.63;5.15;;;;;;;;;;4950445;28;20070;-83
2023/04/10 15:10:41;;;;;;;12.27;4.13;;;;;;;;;;4968348;28;20145;-83
2023/04/10 15:13:09;;;;;;;8.20;4.55;;;;;;;;;;4988550;28;20129;-83
2023/04/10 15:15:37;;;;;;;9.73;4.32;;;;;;;;;;4986662;28;20185;-83
2023/04/10 15:18:05;;;;;;;6.32;3.95;;;;;;;;;;4971809;28;20101;-83
2023/04/10 15:20:35;;;;;;;7.43;4.38;;;;;;;;;;4988137;28;20047;-83
2023/04/10 15:23:53;;;;;;;8.50;4.82;;;;;;;;;;4984661;28;20108;-83
2023/04/10 15:26:21;;;;;;;8.77;4.95;;;;;;;;;;4999447;28;20136;-83
2023/04/10 15:28:55;;;;;;;8.82;5.05;;;;;;;;;;5035437;28;20515;-83
2023/04/10 15:31:27;;;;;;;8.43;4.63;;;;;;;;;;5035452;28;20041;-83
2023/04/10 15:33:55;;;;;;;8.55;4.43;;;;;;;;;;5039206;28;20094;-83
2023/04/10 15:36:23;;;;;;;9.48;5.78;;;;;;;;;;5036518;28;20499;-83
2023/04/10 15:39:15;;;;;;;9.15;4.97;;;;;;;;;;5032499;28;20068;-83
2023/04/10 15:42:07;;;;;;;7.32;4.72;;;;;;;;;;5027928;28;20094;-83
2023/04/10 15:44:35;;;;;;;6.88;4.32;;;;;;;;;;5017632;28;20178;-83
2023/04/10 15:48:12;;;;;;;7.70;4.80;;;;;;;;;;5003997;28;20509;-83
2023/04/10 15:51:06;;;;;;;7.13;3.90;;;;;;;;;;5033267;28;20540;-83
2023/04/10 15:53:39;;;;;;;6.13;3.85;;;;;;;;;;5037608;28;20590;-83
2023/04/10 15:56:07;;;;;;;7.03;3.80;;;;;;;;;;5033223;28;20040;-84
2023/04/10 15:58:35;;;;;;;6.75;3.65;;;;;;;;;;5018339;28;20080;-84